Larochette, Luxembourg
Current Conditions -  °F | °C
As of 10:50 PM on Saturday 25 Oct 2014 (Local Time) from ELLX Reporting Station
Broken Clouds Broken Clouds  
Wind Chill: 54°   Ceiling: 1200
Heat Index: 54°   Visibility: 6mi
Dew Point: 52°   Wind: 5mph
Humidity: 94%   Direction: 310°NW
Pressure: 30.21"   Gusts: NA
Location:  49.78°N, 6.22°E
Report Text: ELLX 252050Z 31004KT 270V360 9999 SCT007 BKN012 12/11 Q1023 NOSIG
Loading
Personal Weather Stations






























Interactive Weather Map
Tropical Storm Tracking
New forecast layout! Learn more

10-Day Weather Forecast

Advertisements
Track Severe Weather on mobile